Time;durP1;ratioP1;P1;durP2;ratioP2;P2;SDS_P1;SDS_P2;PMS_P1;PMS_P2;Temp;Humidity;BMP_temperature;BMP_pressure;BME280_temperature;BME280_humidity;BME280_pressure;Samples;Min_cycle;Max_cycle;Signal;HPM_P1;HPM_P2
2020/12/21 00:00:16;;;;;;;2.30;1.83;;;11.50;81.60;;;;;;5031981;28;20432;-45
2020/12/21 00:02:46;;;;;;;3.03;2.08;;;11.50;81.60;;;;;;5032220;28;20049;-44
2020/12/21 00:05:12;;;;;;;1.80;1.63;;;11.50;81.60;;;;;;5033575;28;20057;-42
2020/12/21 00:07:38;;;;;;;2.28;1.85;;;11.50;81.60;;;;;;5035732;28;20116;-45
2020/12/21 00:10:04;;;;;;;2.70;1.65;;;11.50;81.60;;;;;;5035299;28;20052;-44
2020/12/21 00:12:32;;;;;;;2.53;1.90;;;11.50;81.60;;;;;;5035803;28;20080;-44
2020/12/21 00:14:58;;;;;;;1.48;1.38;;;11.50;81.60;;;;;;5035505;28;20042;-43
2020/12/21 00:17:23;;;;;;;2.47;1.75;;;11.50;81.60;;;;;;5035314;28;20461;-45
2020/12/21 00:19:49;;;;;;;2.25;1.80;;;11.50;81.60;;;;;;5035668;28;20076;-45
2020/12/21 00:22:17;;;;;;;1.95;1.75;;;11.50;81.60;;;;;;5035218;28;20468;-44
2020/12/21 00:24:44;;;;;;;2.15;1.77;;;11.50;81.60;;;;;;5034846;28;20075;-46
2020/12/21 00:27:10;;;;;;;2.33;1.73;;;11.50;81.60;;;;;;5034622;28;20045;-42
2020/12/21 00:29:35;;;;;;;2.22;1.80;;;11.50;81.60;;;;;;5035307;28;20052;-42
2020/12/21 00:32:01;;;;;;;2.05;1.75;;;11.50;81.60;;;;;;5035340;28;20049;-44
2020/12/21 00:34:27;;;;;;;2.00;1.80;;;11.50;81.60;;;;;;5035213;28;20406;-46
2020/12/21 00:36:54;;;;;;;1.73;1.63;;;11.50;81.60;;;;;;5035374;28;20056;-47
2020/12/21 00:39:21;;;;;;;2.05;1.42;;;11.50;81.60;;;;;;5034513;28;20047;-44
2020/12/21 00:41:47;;;;;;;2.10;1.80;;;11.50;81.60;;;;;;5035126;28;20079;-48
2020/12/21 00:44:13;;;;;;;2.30;1.50;;;11.50;81.60;;;;;;5034832;28;20048;-44
2020/12/21 00:46:39;;;;;;;2.30;1.73;;;11.50;81.60;;;;;;5035090;28;20129;-45
2020/12/21 00:49:06;;;;;;;2.47;1.98;;;11.50;81.60;;;;;;5034813;28;20132;-48
2020/12/21 00:51:32;;;;;;;2.13;1.85;;;11.50;81.60;;;;;;5034429;28;20494;-44
2020/12/21 00:53:58;;;;;;;1.45;1.35;;;11.50;81.60;;;;;;5034858;28;20080;-46
2020/12/21 00:56:24;;;;;;;2.13;1.42;;;11.50;81.60;;;;;;5034497;28;20049;-44
2020/12/21 00:58:51;;;;;;;2.00;1.80;;;11.50;81.60;;;;;;5034543;28;20041;-45
2020/12/21 01:01:28;;;;;;;2.97;1.58;;;11.50;81.60;;;;;;5034285;28;20042;-43
2020/12/21 01:03:55;;;;;;;1.60;1.50;;;11.50;81.60;;;;;;5034981;28;20049;-44
2020/12/21 01:06:21;;;;;;;2.00;1.80;;;11.50;81.60;;;;;;5034747;28;20095;-42
2020/12/21 01:08:47;;;;;;;4.65;1.83;;;11.50;81.60;;;;;;5034472;28;20053;-40
2020/12/21 01:11:14;;;;;;;1.45;1.35;;;11.40;81.50;;;;;;5034323;28;20045;-43
2020/12/21 01:13:42;;;;;;;1.95;1.65;;;11.50;81.60;;;;;;5034429;28;20406;-44
2020/12/21 01:16:08;;;;;;;2.28;1.67;;;11.60;81.70;;;;;;5032899;28;20050;-43
2020/12/21 01:18:34;;;;;;;1.83;1.70;;;11.50;81.60;;;;;;5034876;28;20056;-43
2020/12/21 01:21:00;;;;;;;1.50;1.40;;;11.50;81.60;;;;;;5034122;28;20188;-44
2020/12/21 01:23:27;;;;;;;1.73;1.60;;;11.50;81.60;;;;;;5033939;28;20085;-43
2020/12/21 01:25:52;;;;;;;1.75;1.60;;;11.50;81.60;;;;;;5033739;28;20053;-44
2020/12/21 01:28:19;;;;;;;2.13;1.92;;;11.50;81.60;;;;;;5033966;28;20041;-45
2020/12/21 01:30:45;;;;;;;1.92;1.70;;;11.50;81.60;;;;;;5033765;28;20401;-45
2020/12/21 01:33:11;;;;;;;2.30;1.70;;;11.50;81.60;;;;;;5034249;28;20045;-45
2020/12/21 01:35:37;;;;;;;1.60;1.50;;;11.50;81.60;;;;;;5033930;28;20077;-43
2020/12/21 01:38:03;;;;;;;1.80;1.50;;;11.50;81.60;;;;;;5034150;28;20085;-44
2020/12/21 01:40:29;;;;;;;1.75;1.63;;;11.50;81.60;;;;;;5033691;28;20099;-42
2020/12/21 01:42:55;;;;;;;1.80;1.60;;;11.50;81.60;;;;;;5033656;28;20057;-44
2020/12/21 01:45:20;;;;;;;2.22;1.63;;;11.50;81.60;;;;;;5033698;28;20045;-43
2020/12/21 01:47:46;;;;;;;2.17;1.55;;;11.50;81.60;;;;;;5033941;28;20050;-47
2020/12/21 01:50:13;;;;;;;2.45;1.90;;;11.50;81.60;;;;;;5033346;28;20049;-45
2020/12/21 01:52:39;;;;;;;1.90;1.50;;;11.50;81.60;;;;;;5033428;28;20046;-44
2020/12/21 01:55:06;;;;;;;1.80;1.70;;;11.50;81.60;;;;;;5033693;28;20052;-42
2020/12/21 01:57:32;;;;;;;2.05;1.65;;;11.50;81.60;;;;;;5033173;28;20054;-45
2020/12/21 02:00:00;;;;;;;2.00;1.75;;;11.50;81.70;;;;;;5033672;28;20490;-42
2020/12/21 02:02:26;;;;;;;1.73;1.48;;;11.50;81.60;;;;;;5033165;28;20136;-44
2020/12/21 02:04:51;;;;;;;2.10;1.58;;;11.50;81.60;;;;;;5033647;28;20124;-45
2020/12/21 02:07:17;;;;;;;1.77;1.50;;;11.50;81.60;;;;;;5033347;28;20041;-43
2020/12/21 02:09:43;;;;;;;2.30;1.40;;;11.50;81.60;;;;;;5033044;28;20053;-43
2020/12/21 02:12:09;;;;;;;3.75;1.52;;;11.50;81.60;;;;;;5033219;28;20045;-43
2020/12/21 02:14:35;;;;;;;3.05;1.63;;;11.50;81.60;;;;;;5033278;28;20053;-46
2020/12/21 02:17:01;;;;;;;2.00;1.50;;;11.50;81.60;;;;;;5033385;28;20055;-46
2020/12/21 02:19:27;;;;;;;2.35;1.75;;;11.50;81.70;;;;;;5033356;28;20379;-42
2020/12/21 02:21:52;;;;;;;1.88;1.38;;;11.50;81.60;;;;;;5033521;28;20042;-44
2020/12/21 02:24:19;;;;;;;1.50;1.40;;;11.50;81.60;;;;;;5032613;28;20061;-42
2020/12/21 02:26:45;;;;;;;2.83;1.73;;;11.50;81.60;;;;;;5033410;28;20132;-44
2020/12/21 02:29:10;;;;;;;1.95;1.52;;;11.50;81.70;;;;;;5032400;28;20137;-44
2020/12/21 02:31:36;;;;;;;1.50;1.40;;;11.50;81.60;;;;;;5033035;28;20060;-43
2020/12/21 02:34:02;;;;;;;2.35;1.60;;;11.50;81.60;;;;;;5032545;28;20053;-44
2020/12/21 02:36:28;;;;;;;1.52;1.42;;;11.50;81.60;;;;;;5033176;28;20049;-43
2020/12/21 02:38:54;;;;;;;1.98;1.77;;;11.50;81.60;;;;;;5032983;28;20060;-47
2020/12/21 02:41:20;;;;;;;1.30;1.20;;;11.50;81.60;;;;;;5032752;28;20049;-46
2020/12/21 02:43:46;;;;;;;2.10;1.50;;;11.50;81.60;;;;;;5032439;28;20144;-42
2020/12/21 02:46:14;;;;;;;1.50;1.40;;;11.50;81.60;;;;;;5033194;28;20125;-43
2020/12/21 02:48:39;;;;;;;1.50;1.40;;;11.50;81.60;;;;;;5032906;28;20055;-45
2020/12/21 02:51:05;;;;;;;2.55;1.67;;;11.50;81.60;;;;;;5032943;28;20049;-44
2020/12/21 02:53:31;;;;;;;2.95;1.40;;;11.50;81.60;;;;;;5014821;28;20049;-45
2020/12/21 02:55:57;;;;;;;1.60;1.50;;;11.50;81.60;;;;;;5032832;28;20119;-43
2020/12/21 02:58:23;;;;;;;1.40;1.30;;;11.50;81.70;;;;;;5032538;28;20049;-44
2020/12/21 03:00:49;;;;;;;1.83;1.13;;;11.50;81.60;;;;;;5032625;28;20042;-44
2020/12/21 03:03:15;;;;;;;1.70;1.30;;;11.40;81.60;;;;;;5032353;28;21923;-43
2020/12/21 03:05:41;;;;;;;2.55;1.48;;;11.50;81.70;;;;;;5032855;28;20046;-46
2020/12/21 03:08:08;;;;;;;2.03;1.50;;;11.50;81.60;;;;;;5032545;28;20047;-44
2020/12/21 03:10:35;;;;;;;2.75;1.80;;;11.40;81.60;;;;;;5032297;28;20409;-48
2020/12/21 03:13:01;;;;;;;2.42;1.52;;;11.40;81.60;;;;;;5032345;28;20064;-45
2020/12/21 03:15:27;;;;;;;2.03;1.42;;;11.40;81.50;;;;;;5032390;28;20041;-44
2020/12/21 03:17:53;;;;;;;1.40;1.30;;;11.40;81.60;;;;;;5032332;28;20050;-45
2020/12/21 03:20:19;;;;;;;1.90;1.50;;;11.40;81.60;;;;;;5032957;28;20045;-45
2020/12/21 03:22:48;;;;;;;1.48;1.30;;;11.50;81.60;;;;;;5032224;28;20061;-42
2020/12/21 03:25:14;;;;;;;1.75;1.45;;;11.40;81.60;;;;;;5032294;28;20123;-42
2020/12/21 03:27:41;;;;;;;2.17;1.30;;;11.50;81.60;;;;;;5032594;28;20045;-46
2020/12/21 03:30:08;;;;;;;1.35;1.23;;;11.40;81.60;;;;;;5032204;28;20080;-45
2020/12/21 03:32:34;;;;;;;2.25;1.58;;;11.40;81.60;;;;;;5032313;28;20137;-44
2020/12/21 03:35:00;;;;;;;2.13;1.60;;;11.50;81.70;;;;;;5032425;28;20050;-48
2020/12/21 03:37:26;;;;;;;1.48;1.38;;;11.40;81.60;;;;;;5032524;28;20132;-44
2020/12/21 03:39:52;;;;;;;1.58;1.48;;;11.40;81.60;;;;;;5033357;28;20478;-45
2020/12/21 03:42:17;;;;;;;2.05;1.58;;;11.40;82.20;;;;;;5035942;28;20053;-45
2020/12/21 03:44:43;;;;;;;1.60;1.50;;;11.40;81.60;;;;;;5036122;28;20050;-44
2020/12/21 03:47:09;;;;;;;2.28;1.75;;;11.40;81.60;;;;;;5036260;28;20405;-44
2020/12/21 03:49:35;;;;;;;2.35;1.58;;;11.40;81.50;;;;;;5036171;28;20045;-46
2020/12/21 03:52:00;;;;;;;2.03;1.70;;;11.40;81.60;;;;;;5036048;28;20058;-43
2020/12/21 03:54:26;;;;;;;1.85;1.63;;;11.40;81.60;;;;;;5035889;28;20053;-44
2020/12/21 03:56:52;;;;;;;1.70;1.48;;;11.40;81.60;;;;;;5035858;28;20056;-46
2020/12/21 03:59:18;;;;;;;1.55;1.45;;;11.40;81.60;;;;;;5036189;28;20045;-41
2020/12/21 04:01:44;;;;;;;1.50;1.40;;;11.50;81.60;;;;;;5035441;28;20053;-48
2020/12/21 04:04:09;;;;;;;1.50;1.23;;;11.40;81.60;;;;;;5035355;28;20092;-44
2020/12/21 04:06:35;;;;;;;1.30;1.20;;;11.50;81.70;;;;;;5035415;28;20097;-43
2020/12/21 04:09:03;;;;;;;2.13;1.65;;;11.40;81.60;;;;;;5035757;28;20061;-45
2020/12/21 04:11:30;;;;;;;2.25;1.60;;;11.50;81.70;;;;;;5035660;28;20442;-45
2020/12/21 04:13:56;;;;;;;2.22;1.40;;;11.40;81.60;;;;;;5035422;28;20041;-42
2020/12/21 04:16:21;;;;;;;1.70;1.50;;;11.40;81.60;;;;;;5035199;28;20049;-40
2020/12/21 04:18:47;;;;;;;1.70;1.60;;;11.40;81.70;;;;;;5035078;28;20053;-43
2020/12/21 04:21:13;;;;;;;1.60;1.50;;;11.40;81.60;;;;;;5035606;28;20379;-45
2020/12/21 04:23:40;;;;;;;2.33;1.52;;;11.40;81.60;;;;;;5035475;28;20060;-44
2020/12/21 04:26:06;;;;;;;1.95;1.52;;;11.40;81.60;;;;;;5017856;28;20456;-44
2020/12/21 04:28:33;;;;;;;1.92;1.40;;;11.40;81.60;;;;;;5035298;28;20045;-43
2020/12/21 04:31:03;;;;;;;2.00;1.67;;;11.40;81.60;;;;;;5035204;28;20052;-45
2020/12/21 04:33:29;;;;;;;1.45;1.30;;;11.40;81.60;;;;;;5034874;28;20045;-45
2020/12/21 04:35:54;;;;;;;1.95;1.50;;;11.40;81.60;;;;;;5035289;28;20053;-45
2020/12/21 04:38:20;;;;;;;2.05;1.67;;;11.40;81.60;;;;;;5034576;28;20041;-47
2020/12/21 04:40:54;;;;;;;1.90;1.58;;;11.40;81.60;;;;;;5035098;28;20410;-45
2020/12/21 04:43:22;;;;;;;2.22;1.55;;;11.40;81.60;;;;;;5035156;28;20045;-44
2020/12/21 04:45:52;;;;;;;3.13;1.77;;;11.40;81.60;;;;;;5034915;28;20117;-47
2020/12/21 04:48:21;;;;;;;1.70;1.40;;;11.40;81.70;;;;;;5034396;28;20978;-40
2020/12/21 04:50:46;;;;;;;1.30;1.20;;;11.40;81.60;;;;;;5034936;28;20068;-40
2020/12/21 04:53:12;;;;;;;2.85;1.75;;;11.40;81.60;;;;;;5035228;28;20053;-45
2020/12/21 04:55:40;;;;;;;1.40;1.23;;;11.40;81.60;;;;;;5034808;28;20461;-40
2020/12/21 04:58:06;;;;;;;1.83;1.60;;;11.40;81.60;;;;;;5034803;28;20053;-44
2020/12/21 05:00:33;;;;;;;2.35;1.50;;;11.40;81.60;;;;;;5034588;28;20049;-43
2020/12/21 05:02:59;;;;;;;1.90;1.70;;;11.40;81.60;;;;;;5034273;28;20481;-43
2020/12/21 05:05:33;;;;;;;3.50;1.50;;;11.40;81.60;;;;;;5034300;28;20073;-45
2020/12/21 05:08:09;;;;;;;2.00;1.70;;;11.40;81.60;;;;;;5034601;28;20046;-45
2020/12/21 05:11:03;;;;;;;1.67;1.38;;;11.40;81.60;;;;;;5033939;28;20076;-44
2020/12/21 05:13:30;;;;;;;2.08;1.75;;;11.40;81.60;;;;;;5034207;28;20048;-43
2020/12/21 05:15:57;;;;;;;2.38;1.65;;;11.40;81.60;;;;;;5034636;28;20064;-43
2020/12/21 05:18:28;;;;;;;3.05;1.70;;;11.40;81.70;;;;;;5034150;28;20045;-44
2020/12/21 05:20:56;;;;;;;1.40;1.30;;;11.40;81.70;;;;;;5034209;28;20053;-43
2020/12/21 05:23:22;;;;;;;1.90;1.60;;;11.40;81.60;;;;;;5034468;28;20103;-42
2020/12/21 05:26:06;;;;;;;1.58;1.30;;;11.40;82.30;;;;;;5034266;28;20049;-45
2020/12/21 05:28:34;;;;;;;1.95;1.38;;;11.40;81.70;;;;;;5034197;28;20440;-46
2020/12/21 05:31:20;;;;;;;1.90;1.67;;;11.40;81.60;;;;;;5022279;28;20049;-44
2020/12/21 05:33:48;;;;;;;2.58;1.70;;;11.40;81.70;;;;;;5033732;28;20057;-44
2020/12/21 05:36:19;;;;;;;2.65;1.77;;;11.40;81.70;;;;;;5034243;28;20077;-44
2020/12/21 05:38:57;;;;;;;2.15;1.40;;;11.40;81.70;;;;;;5033877;28;20371;-45
2020/12/21 05:41:24;;;;;;;2.40;1.60;;;11.40;81.70;;;;;;5018228;28;20042;-43
2020/12/21 05:43:52;;;;;;;1.70;1.30;;;11.40;81.70;;;;;;5033626;28;20441;-42
2020/12/21 05:46:19;;;;;;;1.73;1.45;;;11.40;81.70;;;;;;5034093;28;20069;-43
2020/12/21 05:48:50;;;;;;;2.47;1.70;;;11.40;81.70;;;;;;5033209;28;20057;-46
2020/12/21 05:51:22;;;;;;;1.92;1.70;;;11.40;81.70;;;;;;5033282;28;20050;-42
2020/12/21 05:53:50;;;;;;;1.70;1.60;;;11.40;81.70;;;;;;5033893;28;20049;-43
2020/12/21 05:56:19;;;;;;;2.20;1.63;;;11.40;81.70;;;;;;5032998;28;20405;-40
2020/12/21 05:58:45;;;;;;;1.75;1.40;;;11.40;81.70;;;;;;5033471;28;20049;-42
2020/12/21 06:01:12;;;;;;;1.52;1.40;;;11.40;81.70;;;;;;5033723;28;20045;-41
2020/12/21 06:03:41;;;;;;;1.90;1.70;;;11.30;81.60;;;;;;5032562;28;20056;-44
2020/12/21 06:06:13;;;;;;;2.25;1.50;;;11.40;81.70;;;;;;5033051;28;20049;-45
2020/12/21 06:08:40;;;;;;;2.25;1.70;;;11.40;81.70;;;;;;5033389;28;20405;-43
2020/12/21 06:11:15;;;;;;;1.85;1.50;;;11.30;81.60;;;;;;5033195;28;20053;-45
2020/12/21 06:13:54;;;;;;;2.10;1.67;;;11.40;81.70;;;;;;5033366;28;20448;-44
2020/12/21 06:16:21;;;;;;;1.58;1.48;;;11.40;81.70;;;;;;5033484;28;20049;-42
2020/12/21 06:19:01;;;;;;;1.40;1.30;;;11.30;81.60;;;;;;5032744;28;20438;-42
2020/12/21 06:21:28;;;;;;;2.20;1.73;;;11.30;81.70;;;;;;5029053;28;20046;-38
2020/12/21 06:23:54;;;;;;;2.05;1.55;;;11.30;81.70;;;;;;5032153;28;20053;-40
2020/12/21 06:26:33;;;;;;;1.60;1.50;;;11.30;81.70;;;;;;5033289;28;20494;-43
2020/12/21 06:29:01;;;;;;;2.00;1.40;;;11.40;81.70;;;;;;5033031;28;20409;-39
2020/12/21 06:31:37;;;;;;;2.03;1.75;;;11.40;81.70;;;;;;5033261;28;20045;-38
2020/12/21 06:34:03;;;;;;;1.90;1.60;;;11.40;81.70;;;;;;5014799;28;20506;-39
2020/12/21 06:36:35;;;;;;;2.88;1.75;;;11.30;81.70;;;;;;5033314;28;20061;-40
2020/12/21 06:39:02;;;;;;;1.75;1.63;;;11.30;81.70;;;;;;5033013;28;20045;-41
2020/12/21 06:41:28;;;;;;;2.33;1.58;;;11.30;81.70;;;;;;5033119;28;20555;-43
2020/12/21 06:44:12;;;;;;;1.92;1.40;;;11.30;81.70;;;;;;5032977;28;20045;-43
2020/12/21 06:46:37;;;;;;;1.75;1.63;;;11.30;81.70;;;;;;5033290;28;20183;-42
2020/12/21 06:49:14;;;;;;;2.00;1.48;;;11.30;81.70;;;;;;5033149;28;20505;-39
2020/12/21 06:51:41;;;;;;;2.13;1.55;;;11.30;81.70;;;;;;5014971;28;20405;-42
2020/12/21 06:54:09;;;;;;;1.70;1.58;;;11.30;81.70;;;;;;5033098;28;20045;-41
2020/12/21 06:56:36;;;;;;;2.00;1.55;;;11.30;81.70;;;;;;5032782;28;20107;-40
2020/12/21 06:59:07;;;;;;;2.85;1.80;;;11.40;82.40;;;;;;5033040;28;20049;-44
2020/12/21 07:01:34;;;;;;;3.10;1.80;;;11.30;81.70;;;;;;5032826;28;20049;-43
2020/12/21 07:04:01;;;;;;;1.88;1.60;;;11.30;81.70;;;;;;5032946;28;20073;-42
2020/12/21 07:06:27;;;;;;;2.25;1.70;;;11.30;81.70;;;;;;5032331;28;20080;-46
2020/12/21 07:08:58;;;;;;;1.92;1.60;;;11.30;81.60;;;;;;5032926;28;20073;-40
2020/12/21 07:11:25;;;;;;;2.70;1.70;;;11.30;81.70;;;;;;5032995;28;20409;-44
2020/12/21 07:13:51;;;;;;;3.65;2.03;;;11.30;81.60;;;;;;5033804;28;20387;-39
2020/12/21 07:16:19;;;;;;;2.50;1.60;;;11.20;81.60;;;;;;5045125;28;20493;-39
2020/12/21 07:18:46;;;;;;;2.58;1.80;;;11.30;81.70;;;;;;5036640;28;20064;-43
2020/12/21 07:21:12;;;;;;;1.48;1.33;;;11.30;81.60;;;;;;5036438;28;20455;-40
2020/12/21 07:23:39;;;;;;;2.45;1.80;;;11.30;81.60;;;;;;5036372;28;20147;-38
2020/12/21 07:26:07;;;;;;;2.35;1.80;;;11.30;81.60;;;;;;5036363;28;20084;-46
2020/12/21 07:28:32;;;;;;;1.90;1.65;;;11.30;81.70;;;;;;5036702;28;20132;-43
2020/12/21 07:31:16;;;;;;;1.88;1.50;;;11.30;81.60;;;;;;5035890;28;20128;-42
2020/12/21 07:33:58;;;;;;;2.70;1.73;;;11.30;81.60;;;;;;5035627;28;20456;-43
2020/12/21 07:36:26;;;;;;;3.03;1.73;;;11.30;81.70;;;;;;5035368;28;20099;-44
2020/12/21 07:38:53;;;;;;;2.10;1.90;;;11.30;81.60;;;;;;5035466;28;20482;-44
2020/12/21 07:41:23;;;;;;;3.17;1.70;;;11.30;81.70;;;;;;5035388;28;20103;-41
2020/12/21 07:44:00;;;;;;;1.70;1.60;;;11.30;81.60;;;;;;5035315;28;20140;-40
2020/12/21 07:46:28;;;;;;;2.50;1.83;;;11.30;81.60;;;;;;5035707;28;20497;-42
2020/12/21 07:48:55;;;;;;;2.50;1.70;;;11.30;81.60;;;;;;5035444;28;20096;-41
2020/12/21 07:51:22;;;;;;;1.67;1.58;;;11.30;81.60;;;;;;5036012;28;20132;-43
2020/12/21 07:53:48;;;;;;;2.05;1.80;;;11.30;81.60;;;;;;5036309;28;20045;-41
2020/12/21 07:56:17;;;;;;;2.15;1.95;;;11.30;81.60;;;;;;5036355;28;20061;-43
2020/12/21 07:58:44;;;;;;;3.30;1.92;;;11.30;81.60;;;;;;5036065;28;20132;-43
2020/12/21 08:01:10;;;;;;;1.90;1.52;;;11.30;81.60;;;;;;5036064;28;20494;-42
2020/12/21 08:03:39;;;;;;;1.90;1.67;;;11.30;81.70;;;;;;5035569;28;20053;-42
2020/12/21 08:06:13;;;;;;;2.60;1.77;;;11.30;81.70;;;;;;5036042;28;20041;-41
2020/12/21 08:08:40;;;;;;;2.83;1.83;;;11.30;81.60;;;;;;5035826;28;20049;-43
2020/12/21 08:11:12;;;;;;;3.13;1.52;;;11.30;81.60;;;;;;5035991;28;20092;-40
2020/12/21 08:13:40;;;;;;;2.97;1.90;;;11.30;81.60;;;;;;5035820;28;20055;-40
2020/12/21 08:16:08;;;;;;;2.88;1.63;;;11.30;81.60;;;;;;5035722;28;20409;-40
2020/12/21 08:18:34;;;;;;;2.75;1.90;;;11.30;81.60;;;;;;5035975;28;20156;-42
2020/12/21 08:21:00;;;;;;;3.10;1.98;;;11.30;81.60;;;;;;5035690;28;20393;-41
2020/12/21 08:23:30;;;;;;;1.95;1.45;;;11.30;81.60;;;;;;5035000;28;20161;-42
2020/12/21 08:25:57;;;;;;;1.80;1.48;;;11.30;81.60;;;;;;5035051;28;20053;-43
2020/12/21 08:28:35;;;;;;;2.22;1.80;;;11.30;81.60;;;;;;5035530;28;20049;-43
2020/12/21 08:31:07;;;;;;;2.40;1.55;;;11.30;81.60;;;;;;5034749;28;20119;-43
2020/12/21 08:33:35;;;;;;;1.90;1.60;;;11.30;81.60;;;;;;5035399;28;20046;-42
2020/12/21 08:36:25;;;;;;;2.60;1.67;;;11.30;81.60;;;;;;5035021;28;20100;-43
2020/12/21 08:38:52;;;;;;;2.83;1.67;;;11.30;81.60;;;;;;5015346;28;20517;-43
2020/12/21 08:41:18;;;;;;;1.73;1.58;;;11.30;81.60;;;;;;5024774;28;20409;-41
2020/12/21 08:43:44;;;;;;;1.77;1.50;;;11.30;81.60;;;;;;5034716;28;20073;-40
2020/12/21 08:46:12;;;;;;;2.80;1.75;;;11.30;81.60;;;;;;5034816;28;20053;-43
2020/12/21 08:48:42;;;;;;;2.67;1.80;;;11.20;81.60;;;;;;5035428;28;20049;-42
2020/12/21 08:51:09;;;;;;;3.67;1.70;;;11.30;81.60;;;;;;5035130;28;20095;-40
2020/12/21 08:53:35;;;;;;;2.03;1.67;;;11.30;81.60;;;;;;5035085;28;20045;-40
2020/12/21 08:56:10;;;;;;;2.92;1.80;;;11.30;81.60;;;;;;5034863;28;20199;-48
2020/12/21 08:58:35;;;;;;;3.15;1.67;;;11.20;81.60;;;;;;5034422;28;20060;-40
2020/12/21 09:01:06;;;;;;;1.80;1.70;;;11.30;81.60;;;;;;5034584;28;20049;-42
2020/12/21 09:03:32;;;;;;;3.33;1.70;;;11.30;81.60;;;;;;5034446;28;20045;-45
2020/12/21 09:05:58;;;;;;;2.22;1.60;;;11.30;81.60;;;;;;5034939;28;20045;-43
2020/12/21 09:08:23;;;;;;;2.78;2.00;;;11.30;81.60;;;;;;5034127;28;20073;-43
2020/12/21 09:10:49;;;;;;;2.15;1.80;;;11.20;81.50;;;;;;5034519;28;20398;-44
2020/12/21 09:13:15;;;;;;;2.25;1.90;;;11.30;81.60;;;;;;5034668;28;20080;-43
2020/12/21 09:15:41;;;;;;;3.83;2.17;;;11.30;81.70;;;;;;5034065;28;20050;-42
2020/12/21 09:18:06;;;;;;;3.10;1.98;;;11.30;81.60;;;;;;5033907;28;20045;-44
2020/12/21 09:20:32;;;;;;;2.70;1.98;;;11.20;81.60;;;;;;5034059;28;20121;-44
2020/12/21 09:22:58;;;;;;;1.98;1.80;;;11.20;81.60;;;;;;5033791;28;20085;-43
2020/12/21 09:25:23;;;;;;;2.30;1.65;;;11.30;81.70;;;;;;5033701;28;20080;-45
2020/12/21 09:27:49;;;;;;;2.22;1.70;;;11.20;81.50;;;;;;5033092;28;20049;-45
2020/12/21 09:30:15;;;;;;;2.35;1.77;;;11.20;81.60;;;;;;5033662;28;20045;-45
2020/12/21 09:32:40;;;;;;;2.05;1.70;;;11.20;81.60;;;;;;5033366;28;20048;-45
2020/12/21 09:35:06;;;;;;;2.25;1.83;;;11.30;81.60;;;;;;5033425;28;20048;-44
2020/12/21 09:37:32;;;;;;;3.03;2.00;;;11.30;81.60;;;;;;5032560;28;20474;-44
2020/12/21 09:39:57;;;;;;;2.40;1.77;;;11.30;81.60;;;;;;5033386;28;20049;-44
2020/12/21 09:42:24;;;;;;;2.70;1.92;;;11.20;81.50;;;;;;5033921;28;20489;-44
2020/12/21 09:44:50;;;;;;;2.30;1.60;;;11.30;81.60;;;;;;5033436;28;20048;-42
2020/12/21 09:47:17;;;;;;;2.83;2.15;;;11.30;81.60;;;;;;5032950;28;20056;-44
2020/12/21 09:49:44;;;;;;;2.72;1.85;;;11.30;81.60;;;;;;5033076;28;20486;-45
2020/12/21 09:52:10;;;;;;;3.15;2.30;;;11.20;81.50;;;;;;5033690;28;20049;-43
2020/12/21 09:54:35;;;;;;;2.45;1.83;;;11.30;81.60;;;;;;5033017;28;20057;-44
2020/12/21 09:57:01;;;;;;;5.80;2.88;;;11.30;81.60;;;;;;5033665;28;20483;-46
2020/12/21 09:59:28;;;;;;;4.93;2.90;;;11.20;81.50;;;;;;5033706;28;20410;-53
2020/12/21 10:01:54;;;;;;;7.40;3.40;;;11.20;80.80;;;;;;5033818;28;20041;-52
2020/12/21 10:04:20;;;;;;;5.43;2.95;;;11.10;81.00;;;;;;5033599;28;20128;-51
2020/12/21 10:06:50;;;;;;;15.80;3.28;;;11.10;81.10;;;;;;5033361;28;20046;-52
2020/12/21 10:09:16;;;;;;;7.47;3.45;;;11.10;81.20;;;;;;5033677;28;20434;-51
2020/12/21 10:11:42;;;;;;;10.27;3.50;;;11.10;81.20;;;;;;5033313;28;20041;-48
2020/12/21 10:14:08;;;;;;;9.20;3.15;;;11.10;81.20;;;;;;5033427;28;20823;-49
2020/12/21 10:16:33;;;;;;;5.75;3.03;;;11.10;81.20;;;;;;5033765;28;20191;-52
2020/12/21 10:18:59;;;;;;;6.22;2.92;;;11.10;81.20;;;;;;5033605;28;20084;-53
2020/12/21 10:21:25;;;;;;;6.35;3.13;;;11.10;81.30;;;;;;5033578;28;20388;-48
2020/12/21 10:23:50;;;;;;;5.53;2.65;;;11.10;81.20;;;;;;5033194;28;20085;-50
2020/12/21 10:26:16;;;;;;;4.55;2.85;;;11.10;81.30;;;;;;5033889;28;20398;-50
2020/12/21 10:28:42;;;;;;;7.22;2.83;;;11.20;81.30;;;;;;5033192;28;20080;-54
2020/12/21 10:31:07;;;;;;;3.88;2.67;;;11.20;81.30;;;;;;5033547;28;20049;-51
2020/12/21 10:33:33;;;;;;;6.32;3.10;;;11.20;81.30;;;;;;5033367;28;20054;-51
2020/12/21 10:35:59;;;;;;;4.75;3.03;;;11.20;81.30;;;;;;5031530;28;20375;-50
2020/12/21 10:38:24;;;;;;;5.47;2.78;;;11.20;81.30;;;;;;5033065;28;20049;-54
2020/12/21 10:40:50;;;;;;;7.38;3.65;;;11.20;81.40;;;;;;5032894;28;20056;-49
2020/12/21 10:43:16;;;;;;;3.85;2.60;;;11.20;81.40;;;;;;5032864;28;20087;-51
2020/12/21 10:45:41;;;;;;;5.47;3.15;;;11.20;81.40;;;;;;5033312;28;20050;-54
2020/12/21 10:48:07;;;;;;;6.57;2.80;;;11.20;81.30;;;;;;5032050;28;20481;-52
2020/12/21 10:50:33;;;;;;;5.50;2.80;;;11.20;81.40;;;;;;5033026;28;20049;-52
2020/12/21 10:52:58;;;;;;;3.80;2.50;;;11.20;81.40;;;;;;5032842;28;20132;-48
2020/12/21 10:55:24;;;;;;;4.35;2.55;;;11.20;81.40;;;;;;5032941;28;20052;-53
2020/12/21 10:57:50;;;;;;;3.50;2.90;;;11.20;81.40;;;;;;5030960;28;20045;-53
2020/12/21 11:00:15;;;;;;;5.45;2.42;;;11.20;81.40;;;;;;5032726;28;20766;-53
2020/12/21 11:02:41;;;;;;;4.55;2.55;;;11.20;81.40;;;;;;5033091;28;20544;-51
2020/12/21 11:05:07;;;;;;;6.88;2.83;;;11.20;81.40;;;;;;5032550;28;20548;-52
2020/12/21 11:07:33;;;;;;;4.03;2.20;;;11.20;81.40;;;;;;5031104;28;20058;-54
2020/12/21 11:09:59;;;;;;;4.03;2.60;;;11.20;81.40;;;;;;5032460;28;20080;-51
2020/12/21 11:12:24;;;;;;;3.70;2.58;;;11.20;81.40;;;;;;5013086;28;20142;-46
2020/12/21 11:14:51;;;;;;;7.75;3.10;;;11.20;81.40;;;;;;5012661;28;20042;-48
2020/12/21 11:17:17;;;;;;;8.48;3.05;;;11.20;79.70;;;;;;5014740;28;20100;-44
2020/12/21 11:19:43;;;;;;;8.00;3.30;;;11.00;80.40;;;;;;5016965;28;20046;-49
2020/12/21 11:22:09;;;;;;;6.68;3.17;;;10.90;80.70;;;;;;5012498;28;20049;-47
2020/12/21 11:24:35;;;;;;;8.07;3.40;;;10.90;80.90;;;;;;5021651;28;20061;-45
2020/12/21 11:27:01;;;;;;;8.68;2.97;;;10.90;80.90;;;;;;5031375;28;20091;-48
2020/12/21 11:29:27;;;;;;;7.78;3.10;;;10.90;81.00;;;;;;5027793;28;20045;-45
2020/12/21 11:31:52;;;;;;;6.47;2.58;;;10.90;81.10;;;;;;5031506;28;20045;-46
2020/12/21 11:34:18;;;;;;;5.65;2.65;;;11.00;81.10;;;;;;5032652;28;20049;-44
2020/12/21 11:36:44;;;;;;;5.55;2.50;;;11.00;81.20;;;;;;5032683;28;20064;-45
2020/12/21 11:39:11;;;;;;;5.05;2.72;;;11.00;81.20;;;;;;5032458;28;20051;-45
2020/12/21 11:41:38;;;;;;;4.93;2.85;;;11.00;81.20;;;;;;5032676;28;20073;-48
2020/12/21 11:44:03;;;;;;;5.30;2.45;;;11.00;81.30;;;;;;5032040;28;20049;-47
2020/12/21 11:46:34;;;;;;;4.88;2.65;;;11.00;81.30;;;;;;5032376;28;20120;-49
2020/12/21 11:49:00;;;;;;;7.18;3.03;;;11.00;81.30;;;;;;5032322;28;20077;-44
2020/12/21 11:51:26;;;;;;;5.88;2.45;;;11.00;81.30;;;;;;5032572;28;20497;-44
2020/12/21 11:53:53;;;;;;;4.07;2.53;;;11.10;81.40;;;;;;5031547;28;20056;-46
2020/12/21 11:56:22;;;;;;;4.80;2.75;;;11.00;81.30;;;;;;5032362;28;20045;-44
2020/12/21 11:58:49;;;;;;;5.50;2.58;;;11.10;81.40;;;;;;5031999;28;20046;-46
2020/12/21 12:01:18;;;;;;;5.15;2.65;;;11.00;81.40;;;;;;5033271;28;20050;-46
2020/12/21 12:03:44;;;;;;;4.13;2.17;;;11.10;81.40;;;;;;5032274;28;20449;-45
2020/12/21 12:06:11;;;;;;;5.38;2.38;;;11.10;81.40;;;;;;5035458;28;20072;-48
2020/12/21 12:08:37;;;;;;;6.25;2.78;;;11.10;81.40;;;;;;5034245;28;20429;-46
2020/12/21 12:11:03;;;;;;;4.25;2.60;;;11.10;81.40;;;;;;5034714;28;20041;-45
2020/12/21 12:13:29;;;;;;;3.33;2.33;;;11.10;81.40;;;;;;5021032;28;20127;-50
2020/12/21 12:15:54;;;;;;;6.20;2.03;;;11.10;81.40;;;;;;5022544;28;20049;-48
2020/12/21 12:18:20;;;;;;;5.38;2.42;;;11.10;81.40;;;;;;5035268;28;20077;-46
2020/12/21 12:20:46;;;;;;;3.88;2.13;;;11.10;81.40;;;;;;5035024;28;20042;-47
2020/12/21 12:23:12;;;;;;;5.47;2.33;;;11.10;81.40;;;;;;5016251;28;20053;-47
2020/12/21 12:25:37;;;;;;;5.57;2.20;;;11.10;81.40;;;;;;5035060;28;20045;-44
2020/12/21 12:28:03;;;;;;;4.35;2.30;;;11.10;81.50;;;;;;5035230;28;20073;-46
2020/12/21 12:30:28;;;;;;;2.60;2.20;;;11.10;81.40;;;;;;5035215;28;20053;-44
2020/12/21 12:32:54;;;;;;;4.05;2.20;;;11.10;81.40;;;;;;5029193;28;20120;-43
2020/12/21 12:35:20;;;;;;;4.15;1.90;;;11.10;81.40;;;;;;5015842;28;20414;-47
2020/12/21 12:37:45;;;;;;;2.90;2.05;;;11.10;81.40;;;;;;5015854;28;20072;-44
2020/12/21 12:40:12;;;;;;;2.70;1.95;;;11.20;81.50;;;;;;5015970;28;20049;-47
2020/12/21 12:42:38;;;;;;;5.05;2.63;;;11.10;81.40;;;;;;5015655;28;20045;-44
2020/12/21 12:45:05;;;;;;;3.55;1.77;;;11.10;81.40;;;;;;5033109;28;20049;-45
2020/12/21 12:47:32;;;;;;;3.80;2.10;;;11.20;81.50;;;;;;5035442;28;20053;-40